createdAt,value
2023-03-19T00:02:18.738Z,13.30
2023-03-19T00:04:46.268Z,14.30
2023-03-19T00:07:13.251Z,13.85
2023-03-19T00:09:41.797Z,12.30
2023-03-19T00:12:08.756Z,13.48
2023-03-19T00:14:35.588Z,12.93
2023-03-19T00:17:02.129Z,13.75
2023-03-19T00:19:28.697Z,11.75
2023-03-19T00:21:55.135Z,10.63
2023-03-19T00:24:21.908Z,11.95
2023-03-19T00:26:48.456Z,12.88
2023-03-19T00:29:14.899Z,13.98
2023-03-19T00:31:41.656Z,11.90
2023-03-19T00:34:08.476Z,11.00
2023-03-19T00:36:35.326Z,12.07
2023-03-19T00:39:02.146Z,11.43
2023-03-19T00:41:28.964Z,11.70
2023-03-19T00:43:56.110Z,12.13
2023-03-19T00:46:22.945Z,11.93
2023-03-19T00:48:51.080Z,12.82
2023-03-19T00:51:17.514Z,12.88
2023-03-19T00:53:44.185Z,12.38
2023-03-19T00:56:12.088Z,11.88
2023-03-19T00:58:38.870Z,12.15
2023-03-19T01:01:06.030Z,11.88
2023-03-19T01:03:32.534Z,12.30
2023-03-19T01:05:59.213Z,11.13
2023-03-19T01:08:25.760Z,11.13
2023-03-19T01:10:52.184Z,11.45
2023-03-19T01:13:18.564Z,11.18
2023-03-19T01:15:45.013Z,10.40
2023-03-19T01:18:11.984Z,12.00
2023-03-19T01:20:39.878Z,11.40
2023-03-19T01:23:06.713Z,11.55
2023-03-19T01:25:35.660Z,10.30
2023-03-19T01:28:02.527Z,9.15
2023-03-19T01:30:29.044Z,10.07
2023-03-19T01:32:55.506Z,8.38
2023-03-19T01:35:22.412Z,9.45
2023-03-19T01:37:48.855Z,9.65
2023-03-19T01:40:15.580Z,10.20
2023-03-19T01:42:51.601Z,9.15
2023-03-19T01:45:30.821Z,8.52
2023-03-19T01:47:57.325Z,9.95
2023-03-19T01:50:43.040Z,9.27
2023-03-19T01:53:12.629Z,10.27
2023-03-19T01:55:40.559Z,10.50
2023-03-19T01:58:07.747Z,10.45
2023-03-19T02:00:35.120Z,10.93
2023-03-19T02:03:02.234Z,9.88
2023-03-19T02:05:29.177Z,9.55
2023-03-19T02:07:58.107Z,8.85
2023-03-19T02:10:24.999Z,9.43
2023-03-19T02:12:51.469Z,9.75
2023-03-19T02:15:18.026Z,9.32
2023-03-19T02:17:44.672Z,9.82
2023-03-19T02:20:18.215Z,10.07
2023-03-19T02:23:03.003Z,10.05
2023-03-19T02:25:47.904Z,9.32
2023-03-19T02:28:16.117Z,10.18
2023-03-19T02:30:43.451Z,10.85
2023-03-19T02:33:13.130Z,10.93
2023-03-19T02:35:42.807Z,10.40
2023-03-19T02:38:09.419Z,12.00
2023-03-19T02:40:41.731Z,12.77
2023-03-19T02:43:08.133Z,10.43
2023-03-19T02:45:34.562Z,11.57
2023-03-19T02:48:01.117Z,12.55
2023-03-19T02:50:27.570Z,12.23
2023-03-19T02:52:53.986Z,10.60
2023-03-19T02:55:21.367Z,10.77
2023-03-19T02:57:47.895Z,11.40
2023-03-19T03:00:14.627Z,11.30
2023-03-19T03:02:41.558Z,11.50
2023-03-19T03:05:09.301Z,12.45
2023-03-19T03:07:36.211Z,11.10
2023-03-19T03:10:06.179Z,10.73
2023-03-19T03:12:32.626Z,11.13
2023-03-19T03:14:59.010Z,10.93
2023-03-19T03:17:26.001Z,10.30
2023-03-19T03:19:53.208Z,11.20
2023-03-19T03:22:19.646Z,10.48
2023-03-19T03:24:46.557Z,9.77
2023-03-19T03:27:14.524Z,10.05
2023-03-19T03:29:42.142Z,9.15
2023-03-19T03:32:08.901Z,8.93
2023-03-19T03:34:35.598Z,9.93
2023-03-19T03:37:02.055Z,11.20
2023-03-19T03:39:28.500Z,9.13
2023-03-19T03:41:54.903Z,10.18
2023-03-19T03:44:21.310Z,9.45
2023-03-19T03:46:48.080Z,9.70
2023-03-19T03:49:14.820Z,8.82
2023-03-19T03:51:41.500Z,9.35
2023-03-19T03:54:07.932Z,9.13
2023-03-19T03:56:34.458Z,9.18
2023-03-19T03:59:01.206Z,9.32
2023-03-19T04:01:27.626Z,9.52
2023-03-19T04:03:55.048Z,8.73
2023-03-19T04:06:22.646Z,8.75
2023-03-19T04:08:49.131Z,8.02
2023-03-19T04:11:15.538Z,8.50
2023-03-19T04:13:42.231Z,9.20
2023-03-19T04:16:09.778Z,8.70
2023-03-19T04:18:36.751Z,8.77
2023-03-19T04:21:03.875Z,7.63
2023-03-19T04:23:30.268Z,8.63
2023-03-19T04:26:00.589Z,8.02
2023-03-19T04:28:27.422Z,8.02
2023-03-19T04:30:58.795Z,8.18
2023-03-19T04:33:25.402Z,8.45
2023-03-19T04:35:51.887Z,8.55
2023-03-19T04:38:18.341Z,9.07
2023-03-19T04:40:44.770Z,8.50
2023-03-19T04:43:11.173Z,9.05
2023-03-19T04:45:37.691Z,8.27
2023-03-19T04:48:04.200Z,9.52
2023-03-19T04:50:30.818Z,9.32
2023-03-19T04:52:57.618Z,7.97
2023-03-19T04:55:24.186Z,8.80
2023-03-19T04:57:50.845Z,7.10
2023-03-19T05:00:20.547Z,6.70
2023-03-19T05:02:47.488Z,7.05
2023-03-19T05:05:13.961Z,6.93
2023-03-19T05:07:41.435Z,7.28
2023-03-19T05:10:08.483Z,8.00
2023-03-19T05:12:35.078Z,7.25
2023-03-19T05:15:01.683Z,7.32
2023-03-19T05:17:31.870Z,8.77
2023-03-19T05:19:58.405Z,5.60
2023-03-19T05:22:24.967Z,7.13
2023-03-19T05:24:51.377Z,7.15
2023-03-19T05:27:18.365Z,6.38
2023-03-19T05:29:44.875Z,6.35
2023-03-19T05:32:11.301Z,5.88
2023-03-19T05:34:39.398Z,5.72
2023-03-19T05:37:05.906Z,4.80
2023-03-19T05:39:32.561Z,5.65
2023-03-19T05:41:59.170Z,5.43
2023-03-19T05:44:25.861Z,4.65
2023-03-19T05:46:52.369Z,4.50
2023-03-19T05:49:18.838Z,5.03
2023-03-19T05:51:45.230Z,5.63
2023-03-19T05:54:11.633Z,4.75
2023-03-19T05:56:38.022Z,5.65
2023-03-19T05:59:04.429Z,4.15
2023-03-19T06:01:30.990Z,4.57
2023-03-19T06:03:57.494Z,4.35
2023-03-19T06:06:24.299Z,5.47
2023-03-19T06:08:51.172Z,5.18
2023-03-19T06:11:17.609Z,4.95
2023-03-19T06:13:43.995Z,5.28
2023-03-19T06:16:10.524Z,5.07
2023-03-19T06:18:37.361Z,5.53
2023-03-19T06:21:03.961Z,5.70
2023-03-19T06:23:30.588Z,5.53
2023-03-19T06:25:56.989Z,5.35
2023-03-19T06:28:23.524Z,4.55
2023-03-19T06:30:49.929Z,4.95
2023-03-19T06:33:16.475Z,5.38
2023-03-19T06:35:42.980Z,5.25
2023-03-19T06:38:09.422Z,5.97
2023-03-19T06:40:36.207Z,4.22
2023-03-19T06:43:02.839Z,5.45
2023-03-19T06:45:29.255Z,5.70
2023-03-19T06:47:56.203Z,5.75
2023-03-19T06:50:22.910Z,5.28
2023-03-19T06:52:49.308Z,5.25
2023-03-19T06:55:16.012Z,5.60
2023-03-19T06:57:42.463Z,5.53
2023-03-19T07:00:11.548Z,6.47
2023-03-19T07:02:38.079Z,6.22
2023-03-19T07:05:05.391Z,5.32
2023-03-19T07:07:32.064Z,5.50
2023-03-19T07:09:58.481Z,6.22
2023-03-19T07:12:27.853Z,6.03
2023-03-19T07:14:56.091Z,7.22
2023-03-19T07:17:23.242Z,6.57
2023-03-19T07:19:49.721Z,5.57
2023-03-19T07:22:16.126Z,5.97
2023-03-19T07:24:42.717Z,5.47
2023-03-19T07:27:09.270Z,6.97
2023-03-19T07:29:36.405Z,6.07
2023-03-19T07:32:03.381Z,5.93
2023-03-19T07:34:29.883Z,6.40
2023-03-19T07:36:56.729Z,5.65
2023-03-19T07:39:23.163Z,4.95
2023-03-19T07:41:49.588Z,5.78
2023-03-19T07:44:16.544Z,5.28
2023-03-19T07:46:43.171Z,4.90
2023-03-19T07:49:11.453Z,5.28
2023-03-19T07:51:37.823Z,4.38
2023-03-19T07:54:04.309Z,5.03
2023-03-19T07:56:31.131Z,5.22
2023-03-19T07:58:57.740Z,4.25
2023-03-19T08:01:24.210Z,5.30
2023-03-19T08:03:50.648Z,5.82
2023-03-19T08:06:17.066Z,5.22
2023-03-19T08:08:43.486Z,4.55
2023-03-19T08:11:09.879Z,4.88
2023-03-19T08:13:36.370Z,5.65
2023-03-19T08:16:02.852Z,5.57
2023-03-19T08:18:29.273Z,6.55
2023-03-19T08:20:55.663Z,5.68
2023-03-19T08:23:22.044Z,5.20
2023-03-19T08:25:48.867Z,5.03
2023-03-19T08:28:15.405Z,4.75
2023-03-19T08:30:44.624Z,4.82
2023-03-19T08:33:11.298Z,4.80
2023-03-19T08:35:37.843Z,5.32
2023-03-19T08:38:04.394Z,4.97
2023-03-19T08:40:30.947Z,5.03
2023-03-19T08:42:57.409Z,4.68
2023-03-19T08:45:23.932Z,4.63
2023-03-19T08:47:52.678Z,5.28
2023-03-19T08:50:19.319Z,4.82
2023-03-19T08:52:45.852Z,4.60
2023-03-19T08:55:12.291Z,5.35
2023-03-19T08:57:38.796Z,4.90
2023-03-19T09:00:06.317Z,4.88
2023-03-19T09:02:32.765Z,4.95
2023-03-19T09:04:59.333Z,5.20
2023-03-19T09:07:25.896Z,5.32
2023-03-19T09:09:52.308Z,4.72
2023-03-19T09:12:18.987Z,6.32
2023-03-19T09:14:45.498Z,5.45
2023-03-19T09:17:13.513Z,5.53
2023-03-19T09:19:40.842Z,5.07
2023-03-19T09:22:07.298Z,6.10
2023-03-19T09:24:33.747Z,5.70
2023-03-19T09:27:00.464Z,6.40
2023-03-19T09:29:26.946Z,6.00
2023-03-19T09:31:53.368Z,5.78
2023-03-19T09:34:19.776Z,7.45
2023-03-19T09:36:46.453Z,6.82
2023-03-19T09:39:12.867Z,6.35
2023-03-19T09:41:52.359Z,5.85
2023-03-19T09:44:29.612Z,5.65
2023-03-19T09:46:56.250Z,5.80
2023-03-19T09:49:26.875Z,5.85
2023-03-19T09:51:54.841Z,6.65
2023-03-19T09:54:21.228Z,5.57
2023-03-19T09:56:47.708Z,5.55
2023-03-19T09:59:14.139Z,6.93
2023-03-19T10:01:45.513Z,5.55
2023-03-19T10:04:15.717Z,5.35
2023-03-19T10:06:42.135Z,6.18
2023-03-19T10:09:30.616Z,6.53
2023-03-19T10:12:06.268Z,6.50
2023-03-19T10:14:48.081Z,6.28
2023-03-19T10:17:34.823Z,5.53
2023-03-19T10:20:07.382Z,5.82
2023-03-19T10:22:37.042Z,5.75
2023-03-19T10:25:04.049Z,4.47
2023-03-19T10:27:30.546Z,4.80
2023-03-19T10:29:57.022Z,4.45
2023-03-19T10:32:42.775Z,3.95
2023-03-19T10:35:19.978Z,4.38
2023-03-19T10:37:47.965Z,4.13
2023-03-19T10:40:20.989Z,3.55
2023-03-19T10:42:47.354Z,4.28
2023-03-19T10:45:29.365Z,3.95
2023-03-19T10:47:56.933Z,3.28
2023-03-19T10:50:34.524Z,3.45
2023-03-19T10:53:05.627Z,3.63
2023-03-19T10:55:32.304Z,3.00
2023-03-19T10:58:08.243Z,3.13
2023-03-19T11:00:35.521Z,2.63
2023-03-19T11:03:04.844Z,2.78
2023-03-19T11:05:33.703Z,3.10
2023-03-19T11:08:04.927Z,2.95
2023-03-19T11:10:33.312Z,2.90
2023-03-19T11:13:03.163Z,2.97
2023-03-19T11:15:38.970Z,2.78
2023-03-19T11:18:28.689Z,3.35
2023-03-19T11:20:59.861Z,2.75
2023-03-19T11:23:30.608Z,3.05
2023-03-19T11:26:01.818Z,2.70
2023-03-19T11:28:32.900Z,2.90
2023-03-19T11:31:08.581Z,2.63
2023-03-19T11:33:42.586Z,2.50
2023-03-19T11:36:11.937Z,3.00
2023-03-19T11:38:44.942Z,3.50
2023-03-19T11:41:21.329Z,2.58
2023-03-19T11:43:57.546Z,2.80
2023-03-19T11:46:23.956Z,3.42
2023-03-19T11:48:59.618Z,3.05
2023-03-19T11:51:30.160Z,2.42
2023-03-19T11:53:59.713Z,2.78
2023-03-19T11:56:29.913Z,2.80
2023-03-19T11:58:57.636Z,3.25
2023-03-19T12:01:43.570Z,2.80
2023-03-19T12:04:28.723Z,2.45
2023-03-19T12:06:55.665Z,2.30
2023-03-19T12:09:25.192Z,2.47
2023-03-19T12:11:54.653Z,3.47
2023-03-19T12:14:42.393Z,2.42
2023-03-19T12:17:29.010Z,2.67
2023-03-19T12:20:02.116Z,2.63
2023-03-19T12:22:43.783Z,2.78
2023-03-19T12:25:36.652Z,3.10
2023-03-19T12:28:10.449Z,3.78
2023-03-19T12:30:42.355Z,3.25
2023-03-19T12:33:14.934Z,2.97
2023-03-19T12:35:43.236Z,3.88
2023-03-19T12:38:12.741Z,3.50
2023-03-19T12:40:43.257Z,3.08
2023-03-19T12:43:25.014Z,3.60
2023-03-19T12:45:57.192Z,3.22
2023-03-19T12:48:27.430Z,3.35
2023-03-19T12:50:56.778Z,3.25
2023-03-19T12:53:31.968Z,3.00
2023-03-19T12:55:59.917Z,2.80
2023-03-19T12:58:34.453Z,3.40
2023-03-19T13:01:09.782Z,2.95
2023-03-19T13:03:58.049Z,3.50
2023-03-19T13:06:43.297Z,2.85
2023-03-19T13:09:28.880Z,2.83
2023-03-19T13:11:59.415Z,2.75
2023-03-19T13:14:59.954Z,2.83
2023-03-19T13:17:38.543Z,2.83
2023-03-19T13:20:16.974Z,3.03
2023-03-19T13:22:57.086Z,3.45
2023-03-19T13:25:31.653Z,2.63
2023-03-19T13:27:58.222Z,3.00
2023-03-19T13:30:26.074Z,3.60
2023-03-19T13:32:54.684Z,4.22
2023-03-19T13:35:31.859Z,3.10
2023-03-19T13:38:03.502Z,3.03
2023-03-19T13:40:41.531Z,3.40
2023-03-19T13:43:28.744Z,2.90
2023-03-19T13:46:15.838Z,3.10
2023-03-19T13:48:45.513Z,3.15
2023-03-19T13:51:18.150Z,3.00
2023-03-19T13:54:03.714Z,3.65
2023-03-19T13:56:33.211Z,3.35
2023-03-19T13:59:15.005Z,3.25
2023-03-19T14:01:45.585Z,3.50
2023-03-19T14:04:23.953Z,3.90
2023-03-19T14:06:57.287Z,3.90
2023-03-19T14:09:43.482Z,3.67
2023-03-19T14:12:21.232Z,4.00
2023-03-19T14:14:53.726Z,4.00
2023-03-19T14:17:42.134Z,3.53
2023-03-19T14:20:12.835Z,4.20
2023-03-19T14:22:58.353Z,3.33
2023-03-19T14:25:29.282Z,3.47
2023-03-19T14:30:40.086Z,3.47
2023-03-19T14:33:17.814Z,3.28
2023-03-19T14:35:48.373Z,3.50
2023-03-19T14:38:38.426Z,3.03
2023-03-19T14:41:06.649Z,3.08
2023-03-19T14:43:46.647Z,3.42
2023-03-19T14:46:28.725Z,3.22
2023-03-19T14:49:31.039Z,3.00
2023-03-19T14:52:01.619Z,3.10
2023-03-19T14:54:47.125Z,3.42
2023-03-19T14:57:17.980Z,3.60
2023-03-19T14:59:44.516Z,3.80
2023-03-19T15:02:33.664Z,3.92
2023-03-19T15:05:01.030Z,3.90
2023-03-19T15:07:32.443Z,3.38
2023-03-19T15:10:01.642Z,3.90
2023-03-19T15:12:43.470Z,3.25
2023-03-19T15:15:25.770Z,4.45
2023-03-19T15:18:03.509Z,3.33
2023-03-19T15:20:45.643Z,4.57
2023-03-19T15:23:26.409Z,4.30
2023-03-19T15:25:58.368Z,4.68
2023-03-19T15:28:26.440Z,4.95
2023-03-19T15:31:09.388Z,4.38
2023-03-19T15:33:46.427Z,5.10
2023-03-19T15:36:17.770Z,4.90
2023-03-19T15:38:56.016Z,4.18
2023-03-19T15:41:24.467Z,5.05
2023-03-19T15:43:51.315Z,4.55
2023-03-19T15:46:20.585Z,4.90
2023-03-19T15:48:49.694Z,4.88
2023-03-19T15:51:16.970Z,4.65
2023-03-19T15:53:43.845Z,4.25
2023-03-19T15:56:13.088Z,5.07
2023-03-19T15:58:41.600Z,5.10
2023-03-19T16:01:09.488Z,4.85
2023-03-19T16:03:46.264Z,5.35
2023-03-19T16:06:14.622Z,5.68
2023-03-19T16:08:54.385Z,5.63
2023-03-19T16:11:40.849Z,5.68
2023-03-19T16:14:23.211Z,5.63
2023-03-19T16:16:49.786Z,6.20
2023-03-19T16:19:29.888Z,6.10
2023-03-19T16:21:56.906Z,6.73
2023-03-19T16:24:33.146Z,6.25
2023-03-19T16:27:01.781Z,6.60
2023-03-19T16:29:44.517Z,6.90
2023-03-19T16:32:22.987Z,7.05
2023-03-19T16:35:15.526Z,6.35
2023-03-19T16:37:45.494Z,6.85
2023-03-19T16:40:11.917Z,6.75
2023-03-19T16:42:39.122Z,7.00
2023-03-19T16:45:31.945Z,7.35
2023-03-19T16:47:59.828Z,7.25
2023-03-19T16:50:29.802Z,6.78
2023-03-19T16:52:57.164Z,6.97
2023-03-19T16:55:25.062Z,6.35
2023-03-19T16:58:05.861Z,7.30
2023-03-19T17:00:32.957Z,7.22
2023-03-19T17:03:00.418Z,7.03
2023-03-19T17:05:27.885Z,6.68
2023-03-19T17:07:57.576Z,7.68
2023-03-19T17:10:25.303Z,6.78
2023-03-19T17:12:53.458Z,8.00
2023-03-19T17:15:22.934Z,8.05
2023-03-19T17:17:49.762Z,7.00
2023-03-19T17:20:22.869Z,6.38
2023-03-19T17:22:49.325Z,7.05
2023-03-19T17:25:18.173Z,6.45
2023-03-19T17:27:45.201Z,7.28
2023-03-19T17:30:12.859Z,7.68
2023-03-19T17:32:41.024Z,6.65
2023-03-19T17:35:14.557Z,7.00
2023-03-19T17:37:41.140Z,7.68
2023-03-19T17:40:18.200Z,7.80
2023-03-19T17:42:44.883Z,7.38
2023-03-19T17:45:18.749Z,8.20
2023-03-19T17:47:48.262Z,7.78
2023-03-19T17:50:19.276Z,7.88
2023-03-19T17:52:46.971Z,7.30
2023-03-19T17:55:19.643Z,7.80
2023-03-19T17:57:46.445Z,8.25
2023-03-19T18:00:13.414Z,7.50
2023-03-19T18:02:41.246Z,9.13
2023-03-19T18:05:15.155Z,7.22
2023-03-19T18:07:41.649Z,7.28
2023-03-19T18:10:14.339Z,7.50
2023-03-19T18:12:40.794Z,7.57
2023-03-19T18:15:07.638Z,7.22
2023-03-19T18:17:34.092Z,6.97
2023-03-19T18:20:00.493Z,7.10
2023-03-19T18:22:27.424Z,6.88
2023-03-19T18:24:53.974Z,6.32
2023-03-19T18:27:24.134Z,6.07
2023-03-19T18:29:51.163Z,6.25
2023-03-19T18:32:21.515Z,6.65
2023-03-19T18:34:50.912Z,7.28
2023-03-19T18:37:18.137Z,6.85
2023-03-19T18:39:44.866Z,5.97
2023-03-19T18:42:14.386Z,6.20
2023-03-19T18:44:40.889Z,7.22
2023-03-19T18:47:12.252Z,6.65
2023-03-19T18:49:38.751Z,7.05
2023-03-19T18:52:05.226Z,6.60
2023-03-19T18:54:32.195Z,5.93
2023-03-19T18:57:00.123Z,7.03
2023-03-19T18:59:28.135Z,6.45
2023-03-19T19:02:01.494Z,6.18
2023-03-19T19:04:29.821Z,7.07
2023-03-19T19:06:56.612Z,6.88
2023-03-19T19:09:23.208Z,7.55
2023-03-19T19:11:49.859Z,7.68
2023-03-19T19:14:19.429Z,7.72
2023-03-19T19:16:46.126Z,7.88
2023-03-19T19:19:23.331Z,7.00
2023-03-19T19:21:50.698Z,8.93
2023-03-19T19:24:17.754Z,7.95
2023-03-19T19:26:44.893Z,7.90
2023-03-19T19:29:17.529Z,9.23
2023-03-19T19:31:44.063Z,9.60
2023-03-19T19:34:16.971Z,8.93
2023-03-19T19:36:43.461Z,8.40
2023-03-19T19:39:10.598Z,9.07
2023-03-19T19:41:37.597Z,8.15
2023-03-19T19:44:04.348Z,9.45
2023-03-19T19:46:31.850Z,9.75
2023-03-19T19:48:59.902Z,9.27
2023-03-19T19:51:27.344Z,9.75
2023-03-19T19:53:54.402Z,10.68
2023-03-19T19:56:22.356Z,10.40
2023-03-19T19:58:52.089Z,11.27
2023-03-19T20:01:20.507Z,10.77
2023-03-19T20:03:47.592Z,11.20
2023-03-19T20:06:14.293Z,10.93
2023-03-19T20:08:41.194Z,11.13
2023-03-19T20:11:26.047Z,13.02
2023-03-19T20:13:54.549Z,13.00
2023-03-19T20:16:22.965Z,12.75
2023-03-19T20:18:53.528Z,13.77
2023-03-19T20:21:20.439Z,14.55
2023-03-19T20:23:47.567Z,13.57
2023-03-19T20:26:14.876Z,14.73
2023-03-19T20:28:41.978Z,12.07
2023-03-19T20:31:12.606Z,13.82
2023-03-19T20:33:39.424Z,15.05
2023-03-19T20:36:06.392Z,16.10
2023-03-19T20:38:36.614Z,16.15
2023-03-19T20:41:03.133Z,16.60
2023-03-19T20:43:30.787Z,16.63
2023-03-19T20:45:58.170Z,16.08
2023-03-19T20:48:25.710Z,19.20
2023-03-19T20:50:52.568Z,18.75
2023-03-19T20:53:19.042Z,19.00
2023-03-19T20:55:46.103Z,18.77
2023-03-19T20:58:45.494Z,18.17
2023-03-19T21:01:12.000Z,19.23
2023-03-19T21:03:38.607Z,18.38
2023-03-19T21:06:06.669Z,17.73
2023-03-19T21:08:40.621Z,17.80
2023-03-19T21:11:12.530Z,16.55
2023-03-19T21:13:38.934Z,16.00
2023-03-19T21:16:05.650Z,20.45
2023-03-19T21:18:32.074Z,19.30
2023-03-19T21:20:58.595Z,19.67
2023-03-19T21:23:31.839Z,20.42
2023-03-19T21:25:59.374Z,19.63
2023-03-19T21:28:30.517Z,22.15
2023-03-19T21:30:57.794Z,23.98
2023-03-19T21:33:28.425Z,24.98
2023-03-19T21:35:55.648Z,25.95
2023-03-19T21:38:22.668Z,26.95
2023-03-19T21:40:50.527Z,27.30
2023-03-19T21:43:24.414Z,27.80
2023-03-19T21:45:51.870Z,26.73
2023-03-19T21:48:23.306Z,28.98
2023-03-19T21:50:50.172Z,34.08
2023-03-19T21:53:19.676Z,34.53
2023-03-19T21:55:46.433Z,34.75
2023-03-19T21:58:13.909Z,33.80
2023-03-19T22:00:40.803Z,37.42
2023-03-19T22:03:13.650Z,38.40
2023-03-19T22:05:42.441Z,37.65
2023-03-19T22:08:08.954Z,38.17
2023-03-19T22:10:35.492Z,36.78
2023-03-19T22:13:02.802Z,37.03
2023-03-19T22:15:38.479Z,41.10
2023-03-19T22:18:05.920Z,39.88
2023-03-19T22:20:32.680Z,39.58
2023-03-19T22:22:59.561Z,40.28
2023-03-19T22:25:32.325Z,42.90
2023-03-19T22:27:59.502Z,42.08
2023-03-19T22:30:29.483Z,44.00
2023-03-19T22:32:56.706Z,45.42
2023-03-19T22:35:23.196Z,41.25
2023-03-19T22:37:49.800Z,42.47
2023-03-19T22:40:17.522Z,42.17
2023-03-19T22:42:44.771Z,41.67
2023-03-19T22:45:21.630Z,43.92
2023-03-19T22:47:48.159Z,42.03
2023-03-19T22:50:19.690Z,43.72
2023-03-19T22:52:46.308Z,47.38
2023-03-19T22:55:12.707Z,43.88
2023-03-19T22:57:39.135Z,44.90
2023-03-19T23:00:12.017Z,44.33
2023-03-19T23:02:39.133Z,44.22
2023-03-19T23:05:35.111Z,43.60
2023-03-19T23:08:04.313Z,45.95
2023-03-19T23:10:32.741Z,49.10
2023-03-19T23:12:59.641Z,49.50
2023-03-19T23:15:30.996Z,52.45
2023-03-19T23:17:58.460Z,52.88
2023-03-19T23:20:27.118Z,64.47
2023-03-19T23:22:54.340Z,54.88
2023-03-19T23:25:30.138Z,50.95
2023-03-19T23:27:58.795Z,51.70
2023-03-19T23:30:30.197Z,49.78
2023-03-19T23:33:00.814Z,56.55
2023-03-19T23:35:31.135Z,50.45
2023-03-19T23:37:58.054Z,49.30
2023-03-19T23:40:26.249Z,50.78
2023-03-19T23:42:53.964Z,45.78
2023-03-19T23:45:33.205Z,46.65
2023-03-19T23:48:04.336Z,48.05
2023-03-19T23:50:31.443Z,48.70
2023-03-19T23:52:58.084Z,47.83
2023-03-19T23:55:24.566Z,48.67
2023-03-19T23:57:56.655Z,44.75
